sensor_id;sensor_type;location;lat;lon;timestamp;P1;durP1;ratioP1;P2;durP2;ratioP2
55316;SDS011;41178;48.956;8.130;2023-05-23T00:04:39;20.40;;;18.23;;
55316;SDS011;41178;48.956;8.130;2023-05-23T00:09:41;22.00;;;18.90;;
55316;SDS011;41178;48.956;8.130;2023-05-23T00:14:42;20.90;;;18.63;;
55316;SDS011;41178;48.956;8.130;2023-05-23T00:19:45;25.00;;;20.05;;
55316;SDS011;41178;48.956;8.130;2023-05-23T00:24:47;26.30;;;21.95;;
55316;SDS011;41178;48.956;8.130;2023-05-23T00:29:49;29.38;;;23.50;;
55316;SDS011;41178;48.956;8.130;2023-05-23T00:34:50;25.90;;;22.70;;
55316;SDS011;41178;48.956;8.130;2023-05-23T00:39:54;27.67;;;24.17;;
55316;SDS011;41178;48.956;8.130;2023-05-23T00:44:56;28.77;;;24.20;;
55316;SDS011;41178;48.956;8.130;2023-05-23T00:49:57;34.40;;;27.63;;
55316;SDS011;41178;48.956;8.130;2023-05-23T00:54:59;31.50;;;26.92;;
55316;SDS011;41178;48.956;8.130;2023-05-23T01:00:02;28.17;;;24.13;;
55316;SDS011;41178;48.956;8.130;2023-05-23T01:05:04;29.00;;;23.80;;
55316;SDS011;41178;48.956;8.130;2023-05-23T01:10:07;29.08;;;24.58;;
55316;SDS011;41178;48.956;8.130;2023-05-23T01:15:12;29.38;;;23.40;;
55316;SDS011;41178;48.956;8.130;2023-05-23T01:20:18;25.60;;;21.48;;
55316;SDS011;41178;48.956;8.130;2023-05-23T01:31:00;23.60;;;19.27;;
55316;SDS011;41178;48.956;8.130;2023-05-23T01:36:04;20.95;;;17.00;;
55316;SDS011;41178;48.956;8.130;2023-05-23T01:41:06;19.98;;;16.67;;
55316;SDS011;41178;48.956;8.130;2023-05-23T01:46:08;19.88;;;17.77;;
55316;SDS011;41178;48.956;8.130;2023-05-23T01:51:11;24.95;;;21.60;;
55316;SDS011;41178;48.956;8.130;2023-05-23T01:56:14;24.85;;;22.17;;
55316;SDS011;41178;48.956;8.130;2023-05-23T02:01:16;28.38;;;24.42;;
55316;SDS011;41178;48.956;8.130;2023-05-23T02:06:18;26.48;;;22.55;;
55316;SDS011;41178;48.956;8.130;2023-05-23T02:11:20;27.42;;;22.38;;
55316;SDS011;41178;48.956;8.130;2023-05-23T02:16:22;30.08;;;25.30;;
55316;SDS011;41178;48.956;8.130;2023-05-23T02:21:26;33.90;;;25.80;;
55316;SDS011;41178;48.956;8.130;2023-05-23T02:26:28;29.42;;;26.25;;
55316;SDS011;41178;48.956;8.130;2023-05-23T02:31:30;32.87;;;27.97;;
55316;SDS011;41178;48.956;8.130;2023-05-23T02:36:32;30.13;;;26.58;;
55316;SDS011;41178;48.956;8.130;2023-05-23T02:41:34;29.88;;;26.42;;
55316;SDS011;41178;48.956;8.130;2023-05-23T02:46:37;34.63;;;27.67;;
55316;SDS011;41178;48.956;8.130;2023-05-23T02:51:39;34.43;;;27.03;;
55316;SDS011;41178;48.956;8.130;2023-05-23T02:56:40;32.93;;;28.23;;
55316;SDS011;41178;48.956;8.130;2023-05-23T03:01:42;30.93;;;26.90;;
55316;SDS011;41178;48.956;8.130;2023-05-23T03:06:44;30.87;;;26.10;;
55316;SDS011;41178;48.956;8.130;2023-05-23T03:11:45;31.17;;;26.47;;
55316;SDS011;41178;48.956;8.130;2023-05-23T03:16:47;31.43;;;26.43;;
55316;SDS011;41178;48.956;8.130;2023-05-23T03:21:49;30.37;;;27.10;;
55316;SDS011;41178;48.956;8.130;2023-05-23T03:26:52;29.03;;;25.87;;
55316;SDS011;41178;48.956;8.130;2023-05-23T03:31:54;29.03;;;26.07;;
55316;SDS011;41178;48.956;8.130;2023-05-23T03:36:56;31.70;;;28.37;;
55316;SDS011;41178;48.956;8.130;2023-05-23T03:41:57;30.97;;;27.77;;
55316;SDS011;41178;48.956;8.130;2023-05-23T03:46:59;31.43;;;26.87;;
55316;SDS011;41178;48.956;8.130;2023-05-23T03:52:01;34.80;;;27.83;;
55316;SDS011;41178;48.956;8.130;2023-05-23T03:57:02;30.20;;;26.67;;
55316;SDS011;41178;48.956;8.130;2023-05-23T04:02:04;29.00;;;26.00;;
55316;SDS011;41178;48.956;8.130;2023-05-23T04:07:06;28.07;;;25.10;;
55316;SDS011;41178;48.956;8.130;2023-05-23T04:12:09;31.57;;;27.17;;
55316;SDS011;41178;48.956;8.130;2023-05-23T04:17:12;31.10;;;26.85;;
55316;SDS011;41178;48.956;8.130;2023-05-23T04:22:13;30.00;;;26.80;;
55316;SDS011;41178;48.956;8.130;2023-05-23T04:27:15;31.77;;;28.47;;
55316;SDS011;41178;48.956;8.130;2023-05-23T04:32:17;29.53;;;26.33;;
55316;SDS011;41178;48.956;8.130;2023-05-23T04:37:19;31.85;;;27.33;;
55316;SDS011;41178;48.956;8.130;2023-05-23T04:42:26;31.97;;;28.07;;
55316;SDS011;41178;48.956;8.130;2023-05-23T04:47:29;30.70;;;27.50;;
55316;SDS011;41178;48.956;8.130;2023-05-23T04:52:37;29.98;;;26.77;;
55316;SDS011;41178;48.956;8.130;2023-05-23T04:57:39;32.20;;;27.23;;
55316;SDS011;41178;48.956;8.130;2023-05-23T05:02:41;29.52;;;26.25;;
55316;SDS011;41178;48.956;8.130;2023-05-23T05:07:43;27.70;;;24.90;;
55316;SDS011;41178;48.956;8.130;2023-05-23T05:12:44;28.40;;;25.43;;
55316;SDS011;41178;48.956;8.130;2023-05-23T05:17:47;28.00;;;25.10;;
55316;SDS011;41178;48.956;8.130;2023-05-23T05:22:56;27.63;;;24.67;;
55316;SDS011;41178;48.956;8.130;2023-05-23T05:27:59;25.53;;;22.83;;
55316;SDS011;41178;48.956;8.130;2023-05-23T05:33:06;27.30;;;24.40;;
55316;SDS011;41178;48.956;8.130;2023-05-23T05:38:08;26.63;;;24.03;;
55316;SDS011;41178;48.956;8.130;2023-05-23T05:43:11;26.47;;;23.67;;
55316;SDS011;41178;48.956;8.130;2023-05-23T05:48:12;28.07;;;25.23;;
55316;SDS011;41178;48.956;8.130;2023-05-23T05:53:14;25.33;;;22.83;;
55316;SDS011;41178;48.956;8.130;2023-05-23T05:58:16;25.00;;;21.93;;
55316;SDS011;41178;48.956;8.130;2023-05-23T06:03:18;25.20;;;22.60;;
55316;SDS011;41178;48.956;8.130;2023-05-23T06:08:19;24.03;;;21.53;;
55316;SDS011;41178;48.956;8.130;2023-05-23T06:13:22;22.40;;;20.20;;
55316;SDS011;41178;48.956;8.130;2023-05-23T06:18:24;23.23;;;20.92;;
55316;SDS011;41178;48.956;8.130;2023-05-23T06:23:26;22.13;;;19.93;;
55316;SDS011;41178;48.956;8.130;2023-05-23T06:28:28;23.88;;;20.30;;
55316;SDS011;41178;48.956;8.130;2023-05-23T06:33:30;21.57;;;19.37;;
55316;SDS011;41178;48.956;8.130;2023-05-23T06:38:32;21.20;;;18.97;;
55316;SDS011;41178;48.956;8.130;2023-05-23T06:43:34;21.00;;;19.00;;
55316;SDS011;41178;48.956;8.130;2023-05-23T06:48:36;21.30;;;18.73;;
55316;SDS011;41178;48.956;8.130;2023-05-23T06:53:37;21.70;;;19.40;;
55316;SDS011;41178;48.956;8.130;2023-05-23T06:58:39;19.60;;;17.57;;
55316;SDS011;41178;48.956;8.130;2023-05-23T07:03:41;17.30;;;15.60;;
55316;SDS011;41178;48.956;8.130;2023-05-23T07:08:45;18.93;;;17.00;;
55316;SDS011;41178;48.956;8.130;2023-05-23T07:13:47;18.93;;;16.93;;
55316;SDS011;41178;48.956;8.130;2023-05-23T07:18:48;17.20;;;15.53;;
55316;SDS011;41178;48.956;8.130;2023-05-23T07:23:50;16.50;;;14.90;;
55316;SDS011;41178;48.956;8.130;2023-05-23T07:28:51;16.47;;;14.77;;
55316;SDS011;41178;48.956;8.130;2023-05-23T07:33:53;17.37;;;15.03;;
55316;SDS011;41178;48.956;8.130;2023-05-23T07:38:57;16.53;;;14.83;;
55316;SDS011;41178;48.956;8.130;2023-05-23T07:43:58;16.07;;;14.40;;
55316;SDS011;41178;48.956;8.130;2023-05-23T07:49:00;17.17;;;15.30;;
55316;SDS011;41178;48.956;8.130;2023-05-23T07:54:02;15.47;;;13.97;;
55316;SDS011;41178;48.956;8.130;2023-05-23T07:59:03;13.87;;;12.57;;
55316;SDS011;41178;48.956;8.130;2023-05-23T08:04:05;11.47;;;10.30;;
55316;SDS011;41178;48.956;8.130;2023-05-23T08:09:07;11.07;;;9.97;;
55316;SDS011;41178;48.956;8.130;2023-05-23T08:14:10;13.30;;;9.73;;
55316;SDS011;41178;48.956;8.130;2023-05-23T08:19:11;12.07;;;9.83;;
55316;SDS011;41178;48.956;8.130;2023-05-23T08:24:13;11.10;;;8.83;;
55316;SDS011;41178;48.956;8.130;2023-05-23T08:29:15;10.07;;;8.77;;
55316;SDS011;41178;48.956;8.130;2023-05-23T08:34:17;10.60;;;9.50;;
55316;SDS011;41178;48.956;8.130;2023-05-23T08:39:18;10.50;;;9.40;;
55316;SDS011;41178;48.956;8.130;2023-05-23T08:44:20;9.63;;;8.73;;
55316;SDS011;41178;48.956;8.130;2023-05-23T08:49:22;12.27;;;8.00;;
55316;SDS011;41178;48.956;8.130;2023-05-23T08:54:24;12.47;;;8.30;;
55316;SDS011;41178;48.956;8.130;2023-05-23T08:59:26;10.50;;;8.33;;
55316;SDS011;41178;48.956;8.130;2023-05-23T09:04:28;11.27;;;8.73;;
55316;SDS011;41178;48.956;8.130;2023-05-23T09:09:32;10.30;;;8.47;;
55316;SDS011;41178;48.956;8.130;2023-05-23T09:14:34;11.10;;;8.20;;
55316;SDS011;41178;48.956;8.130;2023-05-23T09:19:39;9.20;;;8.30;;
55316;SDS011;41178;48.956;8.130;2023-05-23T09:24:42;11.37;;;7.53;;
55316;SDS011;41178;48.956;8.130;2023-05-23T09:29:44;9.88;;;7.50;;
55316;SDS011;41178;48.956;8.130;2023-05-23T09:34:54;7.93;;;6.82;;
55316;SDS011;41178;48.956;8.130;2023-05-23T09:40:01;6.87;;;6.27;;
55316;SDS011;41178;48.956;8.130;2023-05-23T09:45:11;5.68;;;5.10;;
55316;SDS011;41178;48.956;8.130;2023-05-23T09:50:17;8.15;;;5.93;;
55316;SDS011;41178;48.956;8.130;2023-05-23T09:55:19;6.65;;;5.95;;
55316;SDS011;41178;48.956;8.130;2023-05-23T10:00:21;6.18;;;5.32;;
55316;SDS011;41178;48.956;8.130;2023-05-23T10:16:01;6.00;;;5.40;;
55316;SDS011;41178;48.956;8.130;2023-05-23T10:21:18;5.95;;;4.93;;
55316;SDS011;41178;48.956;8.130;2023-05-23T10:26:25;5.95;;;5.35;;
55316;SDS011;41178;48.956;8.130;2023-05-23T10:31:27;6.80;;;6.07;;
55316;SDS011;41178;48.956;8.130;2023-05-23T10:36:36;6.47;;;5.88;;
55316;SDS011;41178;48.956;8.130;2023-05-23T10:41:45;6.07;;;5.47;;
55316;SDS011;41178;48.956;8.130;2023-05-23T10:46:52;5.95;;;5.35;;
55316;SDS011;41178;48.956;8.130;2023-05-23T10:51:58;6.57;;;5.50;;
55316;SDS011;41178;48.956;8.130;2023-05-23T10:57:01;5.90;;;4.20;;
55316;SDS011;41178;48.956;8.130;2023-05-23T11:11:51;3.90;;;3.45;;
55316;SDS011;41178;48.956;8.130;2023-05-23T11:17:14;4.65;;;4.00;;
55316;SDS011;41178;48.956;8.130;2023-05-23T11:22:19;4.00;;;3.60;;
55316;SDS011;41178;48.956;8.130;2023-05-23T11:27:25;4.40;;;4.00;;
55316;SDS011;41178;48.956;8.130;2023-05-23T11:32:32;5.28;;;3.85;;
55316;SDS011;41178;48.956;8.130;2023-05-23T11:37:35;3.70;;;3.40;;
55316;SDS011;41178;48.956;8.130;2023-05-23T11:42:42;4.03;;;3.63;;
55316;SDS011;41178;48.956;8.130;2023-05-23T11:47:43;4.13;;;3.53;;
55316;SDS011;41178;48.956;8.130;2023-05-23T11:52:46;4.10;;;3.70;;
55316;SDS011;41178;48.956;8.130;2023-05-23T11:57:54;3.50;;;3.20;;
55316;SDS011;41178;48.956;8.130;2023-05-23T12:02:56;3.20;;;3.00;;
55316;SDS011;41178;48.956;8.130;2023-05-23T12:07:58;3.43;;;3.13;;
55316;SDS011;41178;48.956;8.130;2023-05-23T12:13:00;3.28;;;2.72;;
55316;SDS011;41178;48.956;8.130;2023-05-23T12:18:02;3.00;;;2.78;;
55316;SDS011;41178;48.956;8.130;2023-05-23T12:23:05;2.95;;;2.58;;
55316;SDS011;41178;48.956;8.130;2023-05-23T12:28:08;3.20;;;2.90;;
55316;SDS011;41178;48.956;8.130;2023-05-23T12:33:14;3.05;;;2.83;;
55316;SDS011;41178;48.956;8.130;2023-05-23T12:38:18;2.95;;;2.75;;
55316;SDS011;41178;48.956;8.130;2023-05-23T12:43:20;3.10;;;2.85;;
55316;SDS011;41178;48.956;8.130;2023-05-23T12:48:21;4.00;;;3.40;;
55316;SDS011;41178;48.956;8.130;2023-05-23T12:53:24;3.25;;;2.95;;
55316;SDS011;41178;48.956;8.130;2023-05-23T12:58:27;4.13;;;2.90;;
55316;SDS011;41178;48.956;8.130;2023-05-23T13:03:31;3.15;;;2.85;;
55316;SDS011;41178;48.956;8.130;2023-05-23T13:08:33;3.20;;;2.90;;
55316;SDS011;41178;48.956;8.130;2023-05-23T13:13:34;2.90;;;2.70;;
55316;SDS011;41178;48.956;8.130;2023-05-23T13:18:36;4.47;;;3.70;;
55316;SDS011;41178;48.956;8.130;2023-05-23T13:23:38;4.47;;;3.58;;
55316;SDS011;41178;48.956;8.130;2023-05-23T13:28:40;5.22;;;2.95;;
55316;SDS011;41178;48.956;8.130;2023-05-23T13:33:41;3.13;;;2.83;;
55316;SDS011;41178;48.956;8.130;2023-05-23T13:38:43;2.95;;;2.70;;
55316;SDS011;41178;48.956;8.130;2023-05-23T13:43:45;3.42;;;3.13;;
55316;SDS011;41178;48.956;8.130;2023-05-23T13:48:47;2.42;;;2.22;;
55316;SDS011;41178;48.956;8.130;2023-05-23T13:53:48;2.85;;;2.65;;
55316;SDS011;41178;48.956;8.130;2023-05-23T13:58:50;4.28;;;3.13;;
55316;SDS011;41178;48.956;8.130;2023-05-23T14:03:52;4.50;;;3.63;;
55316;SDS011;41178;48.956;8.130;2023-05-23T14:08:53;4.82;;;3.95;;
55316;SDS011;41178;48.956;8.130;2023-05-23T14:13:56;4.18;;;3.78;;
55316;SDS011;41178;48.956;8.130;2023-05-23T14:19:00;4.47;;;3.95;;
55316;SDS011;41178;48.956;8.130;2023-05-23T14:24:02;6.70;;;3.92;;
55316;SDS011;41178;48.956;8.130;2023-05-23T14:29:03;5.25;;;4.22;;
55316;SDS011;41178;48.956;8.130;2023-05-23T14:34:05;4.75;;;4.20;;
55316;SDS011;41178;48.956;8.130;2023-05-23T14:39:07;4.68;;;4.03;;
55316;SDS011;41178;48.956;8.130;2023-05-23T14:44:11;5.82;;;4.28;;
55316;SDS011;41178;48.956;8.130;2023-05-23T14:49:13;4.82;;;4.10;;
55316;SDS011;41178;48.956;8.130;2023-05-23T14:54:16;5.32;;;3.50;;
55316;SDS011;41178;48.956;8.130;2023-05-23T14:59:17;3.83;;;3.50;;
55316;SDS011;41178;48.956;8.130;2023-05-23T15:04:19;4.43;;;4.03;;
55316;SDS011;41178;48.956;8.130;2023-05-23T15:09:21;4.45;;;4.03;;
55316;SDS011;41178;48.956;8.130;2023-05-23T15:14:23;4.90;;;4.40;;
55316;SDS011;41178;48.956;8.130;2023-05-23T15:19:29;6.47;;;4.80;;
55316;SDS011;41178;48.956;8.130;2023-05-23T15:24:31;4.95;;;4.43;;
55316;SDS011;41178;48.956;8.130;2023-05-23T15:29:35;6.18;;;5.47;;
55316;SDS011;41178;48.956;8.130;2023-05-23T15:34:40;5.82;;;5.25;;
55316;SDS011;41178;48.956;8.130;2023-05-23T15:39:41;5.60;;;4.97;;
55316;SDS011;41178;48.956;8.130;2023-05-23T15:44:43;6.07;;;5.47;;
55316;SDS011;41178;48.956;8.130;2023-05-23T15:49:45;5.35;;;4.68;;
55316;SDS011;41178;48.956;8.130;2023-05-23T15:54:47;5.60;;;4.88;;
55316;SDS011;41178;48.956;8.130;2023-05-23T15:59:49;5.80;;;5.07;;
55316;SDS011;41178;48.956;8.130;2023-05-23T16:04:50;6.30;;;5.43;;
55316;SDS011;41178;48.956;8.130;2023-05-23T16:09:52;6.90;;;5.22;;
55316;SDS011;41178;48.956;8.130;2023-05-23T16:14:54;9.00;;;5.07;;
55316;SDS011;41178;48.956;8.130;2023-05-23T16:19:55;5.97;;;5.38;;
55316;SDS011;41178;48.956;8.130;2023-05-23T16:24:57;6.00;;;5.35;;
55316;SDS011;41178;48.956;8.130;2023-05-23T16:29:59;7.72;;;5.60;;
55316;SDS011;41178;48.956;8.130;2023-05-23T16:35:01;7.97;;;6.18;;
55316;SDS011;41178;48.956;8.130;2023-05-23T16:40:03;5.55;;;5.05;;
55316;SDS011;41178;48.956;8.130;2023-05-23T16:45:05;6.20;;;5.60;;
55316;SDS011;41178;48.956;8.130;2023-05-23T16:50:08;7.00;;;5.05;;
55316;SDS011;41178;48.956;8.130;2023-05-23T16:55:10;5.88;;;5.15;;
55316;SDS011;41178;48.956;8.130;2023-05-23T17:00:12;6.30;;;5.57;;
55316;SDS011;41178;48.956;8.130;2023-05-23T17:05:14;8.10;;;5.75;;
55316;SDS011;41178;48.956;8.130;2023-05-23T17:10:16;7.70;;;5.68;;
55316;SDS011;41178;48.956;8.130;2023-05-23T17:15:20;7.38;;;5.55;;
55316;SDS011;41178;48.956;8.130;2023-05-23T17:20:22;9.57;;;6.63;;
55316;SDS011;41178;48.956;8.130;2023-05-23T17:25:26;7.38;;;6.57;;
55316;SDS011;41178;48.956;8.130;2023-05-23T17:30:28;8.85;;;6.75;;
55316;SDS011;41178;48.956;8.130;2023-05-23T17:35:30;7.28;;;6.45;;
55316;SDS011;41178;48.956;8.130;2023-05-23T17:40:31;7.77;;;6.70;;
55316;SDS011;41178;48.956;8.130;2023-05-23T17:45:33;7.63;;;6.45;;
55316;SDS011;41178;48.956;8.130;2023-05-23T17:50:35;7.43;;;6.20;;
55316;SDS011;41178;48.956;8.130;2023-05-23T17:55:37;6.68;;;5.90;;
55316;SDS011;41178;48.956;8.130;2023-05-23T18:00:38;8.00;;;6.22;;
55316;SDS011;41178;48.956;8.130;2023-05-23T18:05:40;8.82;;;6.90;;
55316;SDS011;41178;48.956;8.130;2023-05-23T18:10:42;7.45;;;6.35;;
55316;SDS011;41178;48.956;8.130;2023-05-23T18:15:47;9.03;;;7.50;;
55316;SDS011;41178;48.956;8.130;2023-05-23T18:20:52;9.03;;;7.87;;
55316;SDS011;41178;48.956;8.130;2023-05-23T18:25:54;10.95;;;8.75;;
55316;SDS011;41178;48.956;8.130;2023-05-23T18:30:56;11.10;;;9.20;;
55316;SDS011;41178;48.956;8.130;2023-05-23T18:35:57;11.43;;;8.50;;
55316;SDS011;41178;48.956;8.130;2023-05-23T18:40:59;11.10;;;9.70;;
55316;SDS011;41178;48.956;8.130;2023-05-23T18:46:01;11.07;;;9.30;;
55316;SDS011;41178;48.956;8.130;2023-05-23T18:51:03;11.30;;;10.03;;
55316;SDS011;41178;48.956;8.130;2023-05-23T18:56:04;12.20;;;10.00;;
55316;SDS011;41178;48.956;8.130;2023-05-23T19:01:06;12.57;;;9.60;;
55316;SDS011;41178;48.956;8.130;2023-05-23T19:06:08;11.23;;;9.00;;
55316;SDS011;41178;48.956;8.130;2023-05-23T19:11:10;11.33;;;8.47;;
55316;SDS011;41178;48.956;8.130;2023-05-23T19:16:12;10.67;;;9.00;;
55316;SDS011;41178;48.956;8.130;2023-05-23T19:21:14;11.60;;;8.63;;
55316;SDS011;41178;48.956;8.130;2023-05-23T19:26:15;14.13;;;8.57;;
55316;SDS011;41178;48.956;8.130;2023-05-23T19:31:19;10.40;;;9.07;;
55316;SDS011;41178;48.956;8.130;2023-05-23T19:36:21;10.00;;;8.90;;
55316;SDS011;41178;48.956;8.130;2023-05-23T19:41:22;14.40;;;8.00;;
55316;SDS011;41178;48.956;8.130;2023-05-23T19:46:27;11.40;;;8.80;;
55316;SDS011;41178;48.956;8.130;2023-05-23T19:51:29;11.27;;;8.53;;
55316;SDS011;41178;48.956;8.130;2023-05-23T19:56:31;9.93;;;8.77;;
55316;SDS011;41178;48.956;8.130;2023-05-23T20:01:36;9.07;;;7.93;;
55316;SDS011;41178;48.956;8.130;2023-05-23T20:06:38;9.10;;;7.17;;
55316;SDS011;41178;48.956;8.130;2023-05-23T20:11:39;8.13;;;6.90;;
55316;SDS011;41178;48.956;8.130;2023-05-23T20:16:43;9.70;;;7.70;;
55316;SDS011;41178;48.956;8.130;2023-05-23T20:21:44;9.47;;;6.80;;
55316;SDS011;41178;48.956;8.130;2023-05-23T20:26:46;7.63;;;6.33;;
55316;SDS011;41178;48.956;8.130;2023-05-23T20:31:48;8.60;;;6.40;;
55316;SDS011;41178;48.956;8.130;2023-05-23T20:36:50;10.73;;;6.37;;
55316;SDS011;41178;48.956;8.130;2023-05-23T20:41:52;8.27;;;6.67;;
55316;SDS011;41178;48.956;8.130;2023-05-23T20:46:54;6.90;;;6.07;;
55316;SDS011;41178;48.956;8.130;2023-05-23T20:51:57;10.90;;;6.40;;
55316;SDS011;41178;48.956;8.130;2023-05-23T20:57:00;7.27;;;5.97;;
55316;SDS011;41178;48.956;8.130;2023-05-23T21:02:02;8.10;;;6.33;;
55316;SDS011;41178;48.956;8.130;2023-05-23T21:07:06;9.37;;;5.77;;
55316;SDS011;41178;48.956;8.130;2023-05-23T21:12:08;7.90;;;5.03;;
55316;SDS011;41178;48.956;8.130;2023-05-23T21:17:10;6.07;;;5.30;;
55316;SDS011;41178;48.956;8.130;2023-05-23T21:22:12;9.83;;;6.53;;
55316;SDS011;41178;48.956;8.130;2023-05-23T21:27:14;7.37;;;4.87;;
55316;SDS011;41178;48.956;8.130;2023-05-23T21:32:16;6.57;;;5.73;;
55316;SDS011;41178;48.956;8.130;2023-05-23T21:37:18;7.57;;;5.70;;
55316;SDS011;41178;48.956;8.130;2023-05-23T21:42:20;7.73;;;4.83;;
55316;SDS011;41178;48.956;8.130;2023-05-23T21:47:22;7.50;;;5.00;;
55316;SDS011;41178;48.956;8.130;2023-05-23T21:52:25;7.27;;;4.73;;
55316;SDS011;41178;48.956;8.130;2023-05-23T21:57:27;7.03;;;4.90;;
55316;SDS011;41178;48.956;8.130;2023-05-23T22:02:29;6.63;;;4.80;;
55316;SDS011;41178;48.956;8.130;2023-05-23T22:07:32;6.40;;;4.60;;
55316;SDS011;41178;48.956;8.130;2023-05-23T22:12:33;6.87;;;4.33;;
55316;SDS011;41178;48.956;8.130;2023-05-23T22:17:36;5.10;;;4.30;;
55316;SDS011;41178;48.956;8.130;2023-05-23T22:22:43;11.40;;;5.07;;
55316;SDS011;41178;48.956;8.130;2023-05-23T22:27:45;7.50;;;4.93;;
55316;SDS011;41178;48.956;8.130;2023-05-23T22:32:47;6.83;;;4.30;;
55316;SDS011;41178;48.956;8.130;2023-05-23T22:37:48;7.07;;;4.47;;
55316;SDS011;41178;48.956;8.130;2023-05-23T22:42:50;7.57;;;4.80;;
55316;SDS011;41178;48.956;8.130;2023-05-23T22:47:52;6.67;;;4.33;;
55316;SDS011;41178;48.956;8.130;2023-05-23T22:52:54;6.90;;;4.50;;
55316;SDS011;41178;48.956;8.130;2023-05-23T22:57:56;7.80;;;4.30;;
55316;SDS011;41178;48.956;8.130;2023-05-23T23:02:57;5.77;;;4.37;;
55316;SDS011;41178;48.956;8.130;2023-05-23T23:08:00;8.37;;;4.33;;
55316;SDS011;41178;48.956;8.130;2023-05-23T23:13:01;6.10;;;4.13;;
55316;SDS011;41178;48.956;8.130;2023-05-23T23:18:03;5.30;;;4.07;;
55316;SDS011;41178;48.956;8.130;2023-05-23T23:23:06;8.37;;;4.13;;
55316;SDS011;41178;48.956;8.130;2023-05-23T23:28:08;5.93;;;3.97;;
55316;SDS011;41178;48.956;8.130;2023-05-23T23:33:09;6.37;;;4.47;;
55316;SDS011;41178;48.956;8.130;2023-05-23T23:38:12;5.80;;;3.93;;
55316;SDS011;41178;48.956;8.130;2023-05-23T23:43:13;5.53;;;3.80;;
55316;SDS011;41178;48.956;8.130;2023-05-23T23:48:15;6.23;;;3.77;;
55316;SDS011;41178;48.956;8.130;2023-05-23T23:53:17;6.93;;;4.00;;
55316;SDS011;41178;48.956;8.130;2023-05-23T23:58:21;6.93;;;4.20;;
